sensor_id;sensor_type;location;lat;lon;timestamp;P1;durP1;ratioP1;P2;durP2;ratioP2
81160;SDS011;70637;48.514;14.500;2024-02-21T00:00:40;3.63;;;1.23;;
81160;SDS011;70637;48.514;14.500;2024-02-21T01:51:58;2.28;;;1.02;;
81160;SDS011;70637;48.514;14.500;2024-02-21T01:54:23;1.60;;;0.80;;
81160;SDS011;70637;48.514;14.500;2024-02-21T01:56:50;3.00;;;0.82;;
81160;SDS011;70637;48.514;14.500;2024-02-21T01:59:17;1.67;;;0.88;;
81160;SDS011;70637;48.514;14.500;2024-02-21T02:01:44;1.92;;;1.00;;
81160;SDS011;70637;48.514;14.500;2024-02-21T02:04:12;1.92;;;0.90;;
81160;SDS011;70637;48.514;14.500;2024-02-21T02:06:38;3.65;;;1.10;;
81160;SDS011;70637;48.514;14.500;2024-02-21T02:09:04;2.80;;;0.90;;
81160;SDS011;70637;48.514;14.500;2024-02-21T02:11:31;0.95;;;0.80;;
81160;SDS011;70637;48.514;14.500;2024-02-21T02:13:57;2.05;;;1.05;;
81160;SDS011;70637;48.514;14.500;2024-02-21T02:16:23;2.28;;;1.05;;
81160;SDS011;70637;48.514;14.500;2024-02-21T02:18:48;0.95;;;0.70;;
81160;SDS011;70637;48.514;14.500;2024-02-21T02:21:21;1.17;;;0.80;;
81160;SDS011;70637;48.514;14.500;2024-02-21T02:23:50;1.27;;;0.90;;
81160;SDS011;70637;48.514;14.500;2024-02-21T02:26:16;1.20;;;0.82;;
81160;SDS011;70637;48.514;14.500;2024-02-21T02:28:42;2.20;;;1.00;;
81160;SDS011;70637;48.514;14.500;2024-02-21T02:31:07;2.17;;;1.00;;
81160;SDS011;70637;48.514;14.500;2024-02-21T02:33:33;1.50;;;1.02;;
81160;SDS011;70637;48.514;14.500;2024-02-21T02:35:59;0.98;;;0.77;;
81160;SDS011;70637;48.514;14.500;2024-02-21T02:38:24;1.58;;;0.85;;
81160;SDS011;70637;48.514;14.500;2024-02-21T02:40:51;1.58;;;1.00;;
81160;SDS011;70637;48.514;14.500;2024-02-21T02:43:16;1.63;;;0.85;;
81160;SDS011;70637;48.514;14.500;2024-02-21T02:45:42;1.45;;;0.70;;
81160;SDS011;70637;48.514;14.500;2024-02-21T02:48:08;0.75;;;0.70;;
81160;SDS011;70637;48.514;14.500;2024-02-21T02:50:33;1.50;;;0.80;;
81160;SDS011;70637;48.514;14.500;2024-02-21T02:52:59;2.25;;;1.10;;
81160;SDS011;70637;48.514;14.500;2024-02-21T02:55:25;1.35;;;0.70;;
81160;SDS011;70637;48.514;14.500;2024-02-21T02:57:51;1.38;;;0.80;;
81160;SDS011;70637;48.514;14.500;2024-02-21T03:00:17;1.73;;;0.75;;
81160;SDS011;70637;48.514;14.500;2024-02-21T03:02:43;2.28;;;0.93;;
81160;SDS011;70637;48.514;14.500;2024-02-21T03:05:11;2.08;;;0.98;;
81160;SDS011;70637;48.514;14.500;2024-02-21T03:07:41;1.88;;;0.90;;
81160;SDS011;70637;48.514;14.500;2024-02-21T03:10:07;1.70;;;1.10;;
81160;SDS011;70637;48.514;14.500;2024-02-21T03:12:33;1.83;;;0.80;;
81160;SDS011;70637;48.514;14.500;2024-02-21T03:14:59;3.10;;;1.13;;
81160;SDS011;70637;48.514;14.500;2024-02-21T03:17:25;1.48;;;0.90;;
81160;SDS011;70637;48.514;14.500;2024-02-21T03:19:54;2.65;;;1.00;;
81160;SDS011;70637;48.514;14.500;2024-02-21T03:22:20;0.85;;;0.77;;
81160;SDS011;70637;48.514;14.500;2024-02-21T03:24:49;1.63;;;0.80;;
81160;SDS011;70637;48.514;14.500;2024-02-21T03:27:14;1.42;;;0.80;;
81160;SDS011;70637;48.514;14.500;2024-02-21T03:29:40;1.42;;;0.88;;
81160;SDS011;70637;48.514;14.500;2024-02-21T03:32:06;1.83;;;0.98;;
81160;SDS011;70637;48.514;14.500;2024-02-21T03:34:31;1.33;;;0.85;;
81160;SDS011;70637;48.514;14.500;2024-02-21T03:36:57;1.30;;;0.80;;
81160;SDS011;70637;48.514;14.500;2024-02-21T03:39:24;1.25;;;0.77;;
81160;SDS011;70637;48.514;14.500;2024-02-21T03:41:49;3.05;;;0.75;;
81160;SDS011;70637;48.514;14.500;2024-02-21T03:44:16;1.38;;;0.85;;
81160;SDS011;70637;48.514;14.500;2024-02-21T03:46:41;1.40;;;0.73;;
81160;SDS011;70637;48.514;14.500;2024-02-21T03:49:07;1.27;;;0.82;;
81160;SDS011;70637;48.514;14.500;2024-02-21T03:51:33;2.45;;;0.80;;
81160;SDS011;70637;48.514;14.500;2024-02-21T03:53:58;2.05;;;0.90;;
81160;SDS011;70637;48.514;14.500;2024-02-21T03:56:24;1.88;;;1.00;;
81160;SDS011;70637;48.514;14.500;2024-02-21T03:58:50;1.60;;;0.80;;
81160;SDS011;70637;48.514;14.500;2024-02-21T04:01:15;2.90;;;0.88;;
81160;SDS011;70637;48.514;14.500;2024-02-21T04:03:42;1.42;;;0.90;;
81160;SDS011;70637;48.514;14.500;2024-02-21T04:06:09;1.20;;;0.85;;
81160;SDS011;70637;48.514;14.500;2024-02-21T04:08:35;2.20;;;0.80;;
81160;SDS011;70637;48.514;14.500;2024-02-21T04:11:01;1.25;;;0.80;;
81160;SDS011;70637;48.514;14.500;2024-02-21T04:13:27;1.90;;;0.80;;
81160;SDS011;70637;48.514;14.500;2024-02-21T04:15:52;1.45;;;0.80;;
81160;SDS011;70637;48.514;14.500;2024-02-21T04:18:18;1.30;;;0.80;;
81160;SDS011;70637;48.514;14.500;2024-02-21T04:20:44;1.75;;;0.80;;
81160;SDS011;70637;48.514;14.500;2024-02-21T04:23:10;1.55;;;0.80;;
81160;SDS011;70637;48.514;14.500;2024-02-21T04:25:35;1.77;;;0.77;;
81160;SDS011;70637;48.514;14.500;2024-02-21T04:28:01;2.40;;;0.65;;
81160;SDS011;70637;48.514;14.500;2024-02-21T04:30:27;2.83;;;1.30;;
81160;SDS011;70637;48.514;14.500;2024-02-21T04:32:53;1.23;;;0.75;;
81160;SDS011;70637;48.514;14.500;2024-02-21T04:35:19;2.35;;;0.70;;
81160;SDS011;70637;48.514;14.500;2024-02-21T04:37:45;1.27;;;0.63;;
81160;SDS011;70637;48.514;14.500;2024-02-21T04:40:10;1.75;;;0.70;;
81160;SDS011;70637;48.514;14.500;2024-02-21T04:42:36;2.95;;;1.00;;
81160;SDS011;70637;48.514;14.500;2024-02-21T04:45:02;1.45;;;0.80;;
81160;SDS011;70637;48.514;14.500;2024-02-21T04:47:28;3.03;;;0.80;;
81160;SDS011;70637;48.514;14.500;2024-02-21T04:49:54;1.75;;;0.80;;
81160;SDS011;70637;48.514;14.500;2024-02-21T04:52:20;0.98;;;0.70;;
81160;SDS011;70637;48.514;14.500;2024-02-21T04:54:46;2.72;;;0.80;;
81160;SDS011;70637;48.514;14.500;2024-02-21T04:57:12;1.40;;;0.82;;
81160;SDS011;70637;48.514;14.500;2024-02-21T04:59:41;3.53;;;0.80;;
81160;SDS011;70637;48.514;14.500;2024-02-21T05:02:12;1.52;;;0.70;;
81160;SDS011;70637;48.514;14.500;2024-02-21T05:04:37;1.45;;;0.70;;
81160;SDS011;70637;48.514;14.500;2024-02-21T05:07:03;1.65;;;0.68;;
81160;SDS011;70637;48.514;14.500;2024-02-21T05:09:30;1.10;;;0.80;;
81160;SDS011;70637;48.514;14.500;2024-02-21T05:11:55;2.28;;;0.95;;
81160;SDS011;70637;48.514;14.500;2024-02-21T05:14:21;1.00;;;0.70;;
81160;SDS011;70637;48.514;14.500;2024-02-21T05:16:47;0.98;;;0.73;;
81160;SDS011;70637;48.514;14.500;2024-02-21T05:19:13;1.60;;;0.77;;
81160;SDS011;70637;48.514;14.500;2024-02-21T05:21:38;1.08;;;0.70;;
81160;SDS011;70637;48.514;14.500;2024-02-21T05:24:04;2.00;;;0.68;;
81160;SDS011;70637;48.514;14.500;2024-02-21T05:26:30;1.48;;;0.70;;
81160;SDS011;70637;48.514;14.500;2024-02-21T05:28:55;1.45;;;0.93;;
81160;SDS011;70637;48.514;14.500;2024-02-21T05:31:21;1.85;;;0.80;;
81160;SDS011;70637;48.514;14.500;2024-02-21T05:33:47;2.28;;;0.88;;
81160;SDS011;70637;48.514;14.500;2024-02-21T05:36:13;1.10;;;0.70;;
81160;SDS011;70637;48.514;14.500;2024-02-21T05:38:39;1.10;;;0.80;;
81160;SDS011;70637;48.514;14.500;2024-02-21T05:41:04;2.20;;;0.70;;
81160;SDS011;70637;48.514;14.500;2024-02-21T05:43:31;7.70;;;0.90;;
81160;SDS011;70637;48.514;14.500;2024-02-21T05:45:57;4.40;;;0.70;;
81160;SDS011;70637;48.514;14.500;2024-02-21T05:48:23;2.80;;;0.82;;
81160;SDS011;70637;48.514;14.500;2024-02-21T05:50:49;1.52;;;0.70;;
81160;SDS011;70637;48.514;14.500;2024-02-21T05:53:15;6.57;;;1.27;;
81160;SDS011;70637;48.514;14.500;2024-02-21T05:55:40;4.00;;;1.02;;
81160;SDS011;70637;48.514;14.500;2024-02-21T05:58:06;6.20;;;0.88;;
81160;SDS011;70637;48.514;14.500;2024-02-21T06:00:32;4.32;;;0.80;;
81160;SDS011;70637;48.514;14.500;2024-02-21T06:02:58;4.05;;;1.20;;
81160;SDS011;70637;48.514;14.500;2024-02-21T06:05:24;2.08;;;0.88;;
81160;SDS011;70637;48.514;14.500;2024-02-21T06:07:50;3.50;;;1.20;;
81160;SDS011;70637;48.514;14.500;2024-02-21T06:10:18;1.85;;;0.90;;
81160;SDS011;70637;48.514;14.500;2024-02-21T06:12:44;3.78;;;1.10;;
81160;SDS011;70637;48.514;14.500;2024-02-21T06:15:10;2.30;;;0.65;;
81160;SDS011;70637;48.514;14.500;2024-02-21T06:17:35;1.10;;;0.70;;
81160;SDS011;70637;48.514;14.500;2024-02-21T06:20:01;3.05;;;0.80;;
81160;SDS011;70637;48.514;14.500;2024-02-21T06:22:27;1.20;;;0.80;;
81160;SDS011;70637;48.514;14.500;2024-02-21T06:24:52;2.88;;;0.80;;
81160;SDS011;70637;48.514;14.500;2024-02-21T06:27:19;1.75;;;0.80;;
81160;SDS011;70637;48.514;14.500;2024-02-21T06:29:45;3.35;;;1.00;;
81160;SDS011;70637;48.514;14.500;2024-02-21T06:32:10;2.42;;;0.82;;
81160;SDS011;70637;48.514;14.500;2024-02-21T06:34:36;4.63;;;0.90;;
81160;SDS011;70637;48.514;14.500;2024-02-21T06:37:02;2.03;;;1.00;;
81160;SDS011;70637;48.514;14.500;2024-02-21T06:39:27;2.83;;;1.00;;
81160;SDS011;70637;48.514;14.500;2024-02-21T06:41:54;3.88;;;1.02;;
81160;SDS011;70637;48.514;14.500;2024-02-21T06:44:20;5.45;;;0.90;;
81160;SDS011;70637;48.514;14.500;2024-02-21T06:46:46;4.25;;;1.00;;
81160;SDS011;70637;48.514;14.500;2024-02-21T06:49:12;3.42;;;0.90;;
81160;SDS011;70637;48.514;14.500;2024-02-21T06:51:43;3.75;;;1.00;;
81160;SDS011;70637;48.514;14.500;2024-02-21T06:54:09;4.07;;;0.80;;
81160;SDS011;70637;48.514;14.500;2024-02-21T06:56:35;4.13;;;1.10;;
81160;SDS011;70637;48.514;14.500;2024-02-21T06:59:02;2.00;;;0.80;;
81160;SDS011;70637;48.514;14.500;2024-02-21T07:01:31;8.30;;;1.75;;
81160;SDS011;70637;48.514;14.500;2024-02-21T07:03:57;4.40;;;1.05;;
81160;SDS011;70637;48.514;14.500;2024-02-21T07:06:22;5.38;;;0.95;;
81160;SDS011;70637;48.514;14.500;2024-02-21T07:08:48;1.90;;;0.90;;
81160;SDS011;70637;48.514;14.500;2024-02-21T07:11:14;2.70;;;0.93;;
81160;SDS011;70637;48.514;14.500;2024-02-21T07:13:40;4.47;;;1.10;;
81160;SDS011;70637;48.514;14.500;2024-02-21T07:16:06;3.38;;;1.00;;
81160;SDS011;70637;48.514;14.500;2024-02-21T07:18:32;2.85;;;1.10;;
81160;SDS011;70637;48.514;14.500;2024-02-21T07:20:57;4.40;;;1.10;;
81160;SDS011;70637;48.514;14.500;2024-02-21T07:23:23;2.53;;;1.02;;
81160;SDS011;70637;48.514;14.500;2024-02-21T07:25:49;3.92;;;1.30;;
81160;SDS011;70637;48.514;14.500;2024-02-21T07:28:15;5.30;;;1.00;;
81160;SDS011;70637;48.514;14.500;2024-02-21T07:30:41;5.70;;;1.45;;
81160;SDS011;70637;48.514;14.500;2024-02-21T07:33:07;8.32;;;1.80;;
81160;SDS011;70637;48.514;14.500;2024-02-21T07:35:33;7.35;;;2.05;;
81160;SDS011;70637;48.514;14.500;2024-02-21T07:37:59;7.18;;;1.60;;
81160;SDS011;70637;48.514;14.500;2024-02-21T07:40:24;8.18;;;1.77;;
81160;SDS011;70637;48.514;14.500;2024-02-21T07:42:50;5.70;;;1.40;;
81160;SDS011;70637;48.514;14.500;2024-02-21T07:45:16;4.30;;;1.40;;
81160;SDS011;70637;48.514;14.500;2024-02-21T07:47:43;6.35;;;1.90;;
81160;SDS011;70637;48.514;14.500;2024-02-21T07:50:09;5.28;;;1.55;;
81160;SDS011;70637;48.514;14.500;2024-02-21T07:52:34;9.00;;;1.35;;
81160;SDS011;70637;48.514;14.500;2024-02-21T07:55:00;6.07;;;1.80;;
81160;SDS011;70637;48.514;14.500;2024-02-21T07:57:26;8.38;;;1.70;;
81160;SDS011;70637;48.514;14.500;2024-02-21T07:59:51;5.30;;;1.65;;
81160;SDS011;70637;48.514;14.500;2024-02-21T08:02:17;13.02;;;2.20;;
81160;SDS011;70637;48.514;14.500;2024-02-21T08:04:43;9.57;;;2.25;;
81160;SDS011;70637;48.514;14.500;2024-02-21T08:07:09;8.40;;;1.70;;
81160;SDS011;70637;48.514;14.500;2024-02-21T08:09:35;8.02;;;2.00;;
81160;SDS011;70637;48.514;14.500;2024-02-21T08:12:03;8.60;;;1.88;;
81160;SDS011;70637;48.514;14.500;2024-02-21T08:14:29;15.77;;;2.50;;
81160;SDS011;70637;48.514;14.500;2024-02-21T08:16:55;12.43;;;2.30;;
81160;SDS011;70637;48.514;14.500;2024-02-21T08:19:21;13.93;;;2.00;;
81160;SDS011;70637;48.514;14.500;2024-02-21T08:21:49;11.82;;;1.98;;
81160;SDS011;70637;48.514;14.500;2024-02-21T08:24:15;7.03;;;2.30;;
81160;SDS011;70637;48.514;14.500;2024-02-21T08:26:41;7.57;;;1.77;;
81160;SDS011;70637;48.514;14.500;2024-02-21T08:29:07;9.45;;;2.13;;
81160;SDS011;70637;48.514;14.500;2024-02-21T08:31:33;8.85;;;1.92;;
81160;SDS011;70637;48.514;14.500;2024-02-21T08:33:59;8.55;;;1.92;;
81160;SDS011;70637;48.514;14.500;2024-02-21T08:36:32;7.70;;;1.60;;
81160;SDS011;70637;48.514;14.500;2024-02-21T08:38:58;6.10;;;1.70;;
81160;SDS011;70637;48.514;14.500;2024-02-21T08:41:24;7.53;;;1.63;;
81160;SDS011;70637;48.514;14.500;2024-02-21T08:43:51;8.57;;;1.90;;
81160;SDS011;70637;48.514;14.500;2024-02-21T08:46:17;8.38;;;1.75;;
81160;SDS011;70637;48.514;14.500;2024-02-21T08:48:43;7.05;;;1.63;;
81160;SDS011;70637;48.514;14.500;2024-02-21T08:51:11;7.05;;;1.90;;
81160;SDS011;70637;48.514;14.500;2024-02-21T08:53:37;7.57;;;1.52;;
81160;SDS011;70637;48.514;14.500;2024-02-21T08:56:03;11.27;;;2.08;;
81160;SDS011;70637;48.514;14.500;2024-02-21T08:58:29;9.38;;;1.80;;
81160;SDS011;70637;48.514;14.500;2024-02-21T09:00:55;6.97;;;1.67;;
81160;SDS011;70637;48.514;14.500;2024-02-21T09:03:21;4.20;;;1.30;;
81160;SDS011;70637;48.514;14.500;2024-02-21T09:05:47;4.95;;;1.90;;
81160;SDS011;70637;48.514;14.500;2024-02-21T09:08:13;6.95;;;1.80;;
81160;SDS011;70637;48.514;14.500;2024-02-21T09:10:42;6.72;;;2.05;;
81160;SDS011;70637;48.514;14.500;2024-02-21T09:13:07;4.90;;;1.50;;
81160;SDS011;70637;48.514;14.500;2024-02-21T09:15:34;6.75;;;1.50;;
81160;SDS011;70637;48.514;14.500;2024-02-21T09:17:59;6.60;;;1.70;;
81160;SDS011;70637;48.514;14.500;2024-02-21T09:20:25;4.60;;;1.63;;
81160;SDS011;70637;48.514;14.500;2024-02-21T09:22:51;3.70;;;1.25;;
81160;SDS011;70637;48.514;14.500;2024-02-21T09:25:17;3.75;;;1.30;;
81160;SDS011;70637;48.514;14.500;2024-02-21T09:27:44;5.18;;;1.67;;
81160;SDS011;70637;48.514;14.500;2024-02-21T09:30:10;4.95;;;1.92;;
81160;SDS011;70637;48.514;14.500;2024-02-21T09:32:36;4.63;;;1.50;;
81160;SDS011;70637;48.514;14.500;2024-02-21T09:35:02;7.20;;;1.33;;
81160;SDS011;70637;48.514;14.500;2024-02-21T09:37:30;5.60;;;1.77;;
81160;SDS011;70637;48.514;14.500;2024-02-21T09:39:56;6.45;;;1.77;;
81160;SDS011;70637;48.514;14.500;2024-02-21T09:42:22;8.40;;;1.50;;
81160;SDS011;70637;48.514;14.500;2024-02-21T09:45:03;4.82;;;1.70;;
81160;SDS011;70637;48.514;14.500;2024-02-21T09:50:53;5.05;;;1.48;;
81160;SDS011;70637;48.514;14.500;2024-02-21T09:53:22;5.10;;;1.70;;
81160;SDS011;70637;48.514;14.500;2024-02-21T09:55:50;4.35;;;1.30;;
81160;SDS011;70637;48.514;14.500;2024-02-21T09:58:16;5.97;;;1.42;;
81160;SDS011;70637;48.514;14.500;2024-02-21T10:00:42;3.80;;;1.38;;
81160;SDS011;70637;48.514;14.500;2024-02-21T10:03:08;3.63;;;1.35;;
81160;SDS011;70637;48.514;14.500;2024-02-21T10:05:34;3.22;;;1.40;;
81160;SDS011;70637;48.514;14.500;2024-02-21T10:08:00;4.55;;;1.60;;
81160;SDS011;70637;48.514;14.500;2024-02-21T10:10:27;6.18;;;1.60;;
81160;SDS011;70637;48.514;14.500;2024-02-21T10:12:54;42.50;;;4.93;;
81160;SDS011;70637;48.514;14.500;2024-02-21T10:15:21;59.30;;;8.45;;
81160;SDS011;70637;48.514;14.500;2024-02-21T10:17:58;79.68;;;10.50;;
81160;SDS011;70637;48.514;14.500;2024-02-21T10:20:25;71.40;;;11.18;;
81160;SDS011;70637;48.514;14.500;2024-02-21T10:23:00;101.10;;;13.52;;
81160;SDS011;70637;48.514;14.500;2024-02-21T10:25:33;88.32;;;14.32;;
81160;SDS011;70637;48.514;14.500;2024-02-21T10:27:59;82.80;;;14.70;;
81160;SDS011;70637;48.514;14.500;2024-02-21T10:30:25;69.88;;;13.45;;
81160;SDS011;70637;48.514;14.500;2024-02-21T10:32:51;88.95;;;14.90;;
81160;SDS011;70637;48.514;14.500;2024-02-21T10:37:56;71.85;;;12.93;;
81160;SDS011;70637;48.514;14.500;2024-02-21T10:40:23;62.55;;;13.10;;
81160;SDS011;70637;48.514;14.500;2024-02-21T10:42:59;76.45;;;13.38;;
81160;SDS011;70637;48.514;14.500;2024-02-21T10:47:58;67.15;;;12.32;;
81160;SDS011;70637;48.514;14.500;2024-02-21T10:56:22;62.63;;;10.75;;
81160;SDS011;70637;48.514;14.500;2024-02-21T10:59:06;63.17;;;10.63;;
81160;SDS011;70637;48.514;14.500;2024-02-21T11:01:32;50.40;;;10.73;;
81160;SDS011;70637;48.514;14.500;2024-02-21T11:04:06;54.38;;;10.68;;
81160;SDS011;70637;48.514;14.500;2024-02-21T11:06:37;51.20;;;10.43;;
81160;SDS011;70637;48.514;14.500;2024-02-21T11:11:34;50.95;;;9.93;;
81160;SDS011;70637;48.514;14.500;2024-02-21T11:14:07;54.05;;;10.60;;
81160;SDS011;70637;48.514;14.500;2024-02-21T11:16:40;47.85;;;10.65;;
81160;SDS011;70637;48.514;14.500;2024-02-21T11:19:23;48.22;;;9.85;;
81160;SDS011;70637;48.514;14.500;2024-02-21T11:21:51;49.05;;;9.57;;
81160;SDS011;70637;48.514;14.500;2024-02-21T11:24:30;50.78;;;10.48;;
81160;SDS011;70637;48.514;14.500;2024-02-21T11:27:07;47.05;;;9.95;;
81160;SDS011;70637;48.514;14.500;2024-02-21T11:29:54;52.60;;;8.70;;
81160;SDS011;70637;48.514;14.500;2024-02-21T11:32:24;47.00;;;9.65;;
81160;SDS011;70637;48.514;14.500;2024-02-21T11:37:28;39.25;;;9.43;;
81160;SDS011;70637;48.514;14.500;2024-02-21T11:39:56;44.90;;;8.98;;
81160;SDS011;70637;48.514;14.500;2024-02-21T11:42:22;39.53;;;8.20;;
81160;SDS011;70637;48.514;14.500;2024-02-21T11:44:51;34.35;;;7.93;;
81160;SDS011;70637;48.514;14.500;2024-02-21T11:47:18;38.65;;;8.48;;
81160;SDS011;70637;48.514;14.500;2024-02-21T11:49:45;33.67;;;8.57;;
81160;SDS011;70637;48.514;14.500;2024-02-21T11:52:12;30.77;;;8.05;;
81160;SDS011;70637;48.514;14.500;2024-02-21T11:54:40;27.90;;;8.02;;
81160;SDS011;70637;48.514;14.500;2024-02-21T11:57:06;33.47;;;7.72;;
81160;SDS011;70637;48.514;14.500;2024-02-21T11:59:32;29.48;;;7.93;;
81160;SDS011;70637;48.514;14.500;2024-02-21T12:01:59;32.35;;;8.00;;
81160;SDS011;70637;48.514;14.500;2024-02-21T12:04:25;31.63;;;7.38;;
81160;SDS011;70637;48.514;14.500;2024-02-21T12:06:52;35.60;;;7.95;;
81160;SDS011;70637;48.514;14.500;2024-02-21T12:09:19;29.33;;;7.70;;
81160;SDS011;70637;48.514;14.500;2024-02-21T12:11:45;29.02;;;7.90;;
81160;SDS011;70637;48.514;14.500;2024-02-21T12:14:21;25.77;;;7.43;;
81160;SDS011;70637;48.514;14.500;2024-02-21T12:16:50;30.38;;;7.60;;
81160;SDS011;70637;48.514;14.500;2024-02-21T12:19:15;29.45;;;7.28;;
81160;SDS011;70637;48.514;14.500;2024-02-21T12:21:42;30.73;;;7.85;;
81160;SDS011;70637;48.514;14.500;2024-02-21T12:24:12;27.35;;;7.38;;
81160;SDS011;70637;48.514;14.500;2024-02-21T12:26:54;31.63;;;7.38;;
81160;SDS011;70637;48.514;14.500;2024-02-21T12:29:22;23.80;;;7.10;;
81160;SDS011;70637;48.514;14.500;2024-02-21T12:31:49;24.73;;;7.05;;
81160;SDS011;70637;48.514;14.500;2024-02-21T12:34:16;24.92;;;7.13;;
81160;SDS011;70637;48.514;14.500;2024-02-21T12:36:42;22.65;;;6.65;;
81160;SDS011;70637;48.514;14.500;2024-02-21T12:41:40;25.60;;;6.78;;
81160;SDS011;70637;48.514;14.500;2024-02-21T12:44:07;21.70;;;6.10;;
81160;SDS011;70637;48.514;14.500;2024-02-21T12:46:33;22.50;;;6.88;;
81160;SDS011;70637;48.514;14.500;2024-02-21T12:49:00;22.40;;;6.43;;
81160;SDS011;70637;48.514;14.500;2024-02-21T12:51:26;24.35;;;6.80;;
81160;SDS011;70637;48.514;14.500;2024-02-21T12:53:52;22.55;;;6.78;;
81160;SDS011;70637;48.514;14.500;2024-02-21T12:56:17;22.42;;;6.18;;
81160;SDS011;70637;48.514;14.500;2024-02-21T12:58:43;22.05;;;6.50;;
81160;SDS011;70637;48.514;14.500;2024-02-21T13:01:09;23.70;;;6.30;;
81160;SDS011;70637;48.514;14.500;2024-02-21T13:03:36;21.27;;;6.55;;
81160;SDS011;70637;48.514;14.500;2024-02-21T13:06:02;18.88;;;5.93;;
81160;SDS011;70637;48.514;14.500;2024-02-21T13:08:28;19.73;;;5.50;;
81160;SDS011;70637;48.514;14.500;2024-02-21T13:10:54;16.75;;;5.68;;
81160;SDS011;70637;48.514;14.500;2024-02-21T13:13:20;21.27;;;5.68;;
81160;SDS011;70637;48.514;14.500;2024-02-21T13:15:45;18.67;;;5.30;;
81160;SDS011;70637;48.514;14.500;2024-02-21T13:18:11;20.05;;;5.60;;
81160;SDS011;70637;48.514;14.500;2024-02-21T13:20:36;19.33;;;5.85;;
81160;SDS011;70637;48.514;14.500;2024-02-21T13:23:03;20.65;;;5.75;;
81160;SDS011;70637;48.514;14.500;2024-02-21T13:25:29;17.45;;;5.75;;
81160;SDS011;70637;48.514;14.500;2024-02-21T13:27:55;16.95;;;6.05;;
81160;SDS011;70637;48.514;14.500;2024-02-21T13:30:21;16.90;;;5.53;;
81160;SDS011;70637;48.514;14.500;2024-02-21T13:32:47;18.27;;;5.30;;
81160;SDS011;70637;48.514;14.500;2024-02-21T13:35:13;19.55;;;5.20;;
81160;SDS011;70637;48.514;14.500;2024-02-21T13:37:43;13.90;;;5.28;;
81160;SDS011;70637;48.514;14.500;2024-02-21T13:40:09;16.90;;;4.95;;
81160;SDS011;70637;48.514;14.500;2024-02-21T13:42:35;17.63;;;5.15;;
81160;SDS011;70637;48.514;14.500;2024-02-21T13:45:05;14.80;;;5.10;;
81160;SDS011;70637;48.514;14.500;2024-02-21T13:47:31;14.07;;;4.63;;
81160;SDS011;70637;48.514;14.500;2024-02-21T13:49:57;17.85;;;4.88;;
81160;SDS011;70637;48.514;14.500;2024-02-21T13:52:23;13.02;;;4.70;;
81160;SDS011;70637;48.514;14.500;2024-02-21T13:54:51;16.25;;;5.10;;
81160;SDS011;70637;48.514;14.500;2024-02-21T13:57:17;12.73;;;4.60;;
81160;SDS011;70637;48.514;14.500;2024-02-21T13:59:42;13.98;;;4.70;;
81160;SDS011;70637;48.514;14.500;2024-02-21T14:02:08;12.40;;;4.50;;
81160;SDS011;70637;48.514;14.500;2024-02-21T14:04:34;14.10;;;4.60;;
81160;SDS011;70637;48.514;14.500;2024-02-21T14:07:00;12.65;;;4.30;;
81160;SDS011;70637;48.514;14.500;2024-02-21T14:09:26;13.48;;;4.80;;
81160;SDS011;70637;48.514;14.500;2024-02-21T14:11:52;14.52;;;4.65;;
81160;SDS011;70637;48.514;14.500;2024-02-21T14:14:18;12.20;;;4.28;;
81160;SDS011;70637;48.514;14.500;2024-02-21T14:16:44;12.32;;;4.22;;
81160;SDS011;70637;48.514;14.500;2024-02-21T14:19:12;8.95;;;3.95;;
81160;SDS011;70637;48.514;14.500;2024-02-21T14:21:38;12.65;;;4.55;;
81160;SDS011;70637;48.514;14.500;2024-02-21T14:24:04;14.35;;;4.28;;
81160;SDS011;70637;48.514;14.500;2024-02-21T14:26:30;15.98;;;3.95;;
81160;SDS011;70637;48.514;14.500;2024-02-21T14:28:56;14.40;;;4.03;;
81160;SDS011;70637;48.514;14.500;2024-02-21T14:31:22;12.88;;;4.05;;
81160;SDS011;70637;48.514;14.500;2024-02-21T14:33:48;15.27;;;3.70;;
81160;SDS011;70637;48.514;14.500;2024-02-21T14:36:14;11.00;;;3.25;;
81160;SDS011;70637;48.514;14.500;2024-02-21T14:38:42;15.38;;;3.53;;
81160;SDS011;70637;48.514;14.500;2024-02-21T14:41:09;11.20;;;3.15;;
81160;SDS011;70637;48.514;14.500;2024-02-21T14:43:38;12.38;;;2.90;;
81160;SDS011;70637;48.514;14.500;2024-02-21T14:46:04;9.30;;;2.55;;
81160;SDS011;70637;48.514;14.500;2024-02-21T14:48:31;6.53;;;2.30;;
81160;SDS011;70637;48.514;14.500;2024-02-21T14:50:57;7.30;;;2.60;;
81160;SDS011;70637;48.514;14.500;2024-02-21T14:53:23;8.27;;;2.35;;
81160;SDS011;70637;48.514;14.500;2024-02-21T14:55:49;6.65;;;2.03;;
81160;SDS011;70637;48.514;14.500;2024-02-21T14:58:15;8.43;;;2.28;;
81160;SDS011;70637;48.514;14.500;2024-02-21T15:00:43;8.65;;;2.08;;
81160;SDS011;70637;48.514;14.500;2024-02-21T15:03:12;12.02;;;1.88;;
81160;SDS011;70637;48.514;14.500;2024-02-21T15:05:44;8.30;;;1.98;;
81160;SDS011;70637;48.514;14.500;2024-02-21T15:08:10;8.65;;;1.98;;
81160;SDS011;70637;48.514;14.500;2024-02-21T15:10:36;6.55;;;2.10;;
81160;SDS011;70637;48.514;14.500;2024-02-21T15:13:02;8.77;;;1.88;;
81160;SDS011;70637;48.514;14.500;2024-02-21T15:15:29;6.13;;;1.80;;
81160;SDS011;70637;48.514;14.500;2024-02-21T15:17:55;10.32;;;2.00;;
81160;SDS011;70637;48.514;14.500;2024-02-21T15:20:21;9.73;;;2.50;;
81160;SDS011;70637;48.514;14.500;2024-02-21T15:22:47;12.57;;;1.90;;
81160;SDS011;70637;48.514;14.500;2024-02-21T15:25:13;7.05;;;1.88;;
81160;SDS011;70637;48.514;14.500;2024-02-21T15:27:43;10.35;;;1.90;;
81160;SDS011;70637;48.514;14.500;2024-02-21T15:30:09;6.60;;;1.67;;
81160;SDS011;70637;48.514;14.500;2024-02-21T15:32:36;5.50;;;1.50;;
81160;SDS011;70637;48.514;14.500;2024-02-21T15:35:03;9.15;;;1.90;;
81160;SDS011;70637;48.514;14.500;2024-02-21T15:37:31;7.40;;;1.85;;
81160;SDS011;70637;48.514;14.500;2024-02-21T15:39:59;5.18;;;1.25;;
81160;SDS011;70637;48.514;14.500;2024-02-21T15:42:26;7.10;;;1.40;;
81160;SDS011;70637;48.514;14.500;2024-02-21T15:44:51;5.57;;;1.60;;
81160;SDS011;70637;48.514;14.500;2024-02-21T15:47:18;4.07;;;1.30;;
81160;SDS011;70637;48.514;14.500;2024-02-21T15:49:48;13.57;;;1.92;;
81160;SDS011;70637;48.514;14.500;2024-02-21T15:52:17;13.77;;;1.98;;
81160;SDS011;70637;48.514;14.500;2024-02-21T15:54:43;8.20;;;1.70;;
81160;SDS011;70637;48.514;14.500;2024-02-21T15:57:09;9.55;;;1.77;;
81160;SDS011;70637;48.514;14.500;2024-02-21T15:59:34;9.38;;;1.70;;
81160;SDS011;70637;48.514;14.500;2024-02-21T16:02:00;5.50;;;1.65;;
81160;SDS011;70637;48.514;14.500;2024-02-21T16:04:29;10.70;;;1.85;;
81160;SDS011;70637;48.514;14.500;2024-02-21T16:06:58;5.10;;;1.30;;
81160;SDS011;70637;48.514;14.500;2024-02-21T16:09:25;6.45;;;1.60;;
81160;SDS011;70637;48.514;14.500;2024-02-21T16:11:53;6.97;;;1.73;;
81160;SDS011;70637;48.514;14.500;2024-02-21T16:14:19;3.35;;;1.38;;
81160;SDS011;70637;48.514;14.500;2024-02-21T16:16:46;6.57;;;1.70;;
81160;SDS011;70637;48.514;14.500;2024-02-21T16:19:13;7.40;;;1.73;;
81160;SDS011;70637;48.514;14.500;2024-02-21T16:21:40;4.90;;;1.40;;
81160;SDS011;70637;48.514;14.500;2024-02-21T16:24:07;3.67;;;1.40;;
81160;SDS011;70637;48.514;14.500;2024-02-21T16:26:36;4.95;;;1.67;;
81160;SDS011;70637;48.514;14.500;2024-02-21T16:29:02;4.53;;;1.60;;
81160;SDS011;70637;48.514;14.500;2024-02-21T16:31:29;7.10;;;1.48;;
81160;SDS011;70637;48.514;14.500;2024-02-21T16:33:56;10.60;;;2.00;;
81160;SDS011;70637;48.514;14.500;2024-02-21T16:36:22;5.60;;;1.63;;